• Join FlightAware (Why Join?)
  • Login
  • US Flag 
08:25AM EDT


 

Airport Tracker/Info


-or-


 

Live Flight TrackerFlight Track Log ✈ AAL832 ✈ 21-Jun-2013 ✈ KORD - KMIA

Flight Track Log - Related Links

Times and Time Zones

All times are in EDT time to prevent confusion due to time zone crossing. See the AAL832 flight status page for this flight to view local times or setup timezone preferences in your user account.

Time Position Orientation Groundspeed Altitude Reporting Facility
EDT Latitude Longitude Course Direction KTS MPH feet Rate Location/Type
06:04PM 41.9410 -87.9060 182° South 164 189 2,200  Level FlightAware
06:05PM 41.9190 -87.9020 172° South 195 224 3,000 1,500 Climbing FlightAware
06:05PM 41.8980 -87.8980 172° South 231 266 3,400 1,560 Climbing FlightAware
06:05PM 41.8610 -87.8910 172° South 265 305 4,400 1,500 Climbing FlightAware
06:06PM 41.8290 -87.8850 172° South 281 323 4,900 1,560 Climbing FlightAware
06:07PM 41.7710 -87.8730 171° South 284 327 6,300 2,160 Climbing FlightAware
06:07PM 41.7300 -87.8660 173° South 302 348 7,700 2,760 Climbing FlightAware
06:08PM 41.6930 -87.8590 172° South 313 360 8,900 3,060 Climbing FlightAware
06:08PM 41.6320 -87.8480 172° South 315 362 11,200 3,120 Climbing FlightAware
06:09PM 41.5840 -87.8410 174° South 319 367 12,900 2,700 Climbing FlightAware
06:10PM 41.5060 -87.8300 174° South 341 392 15,000 2,220 Climbing FlightAware
06:10PM 41.4360 -87.8260 178° South 369 425 16,300 1,080 Climbing FlightAware
06:11PM 41.3710 -87.8260 180° South 372 428 16,600 1,860 Climbing FlightAware
06:11PM 41.3170 -87.8220 177° South 408 470 18,400 3,360 Climbing FlightAware
06:12PM 41.2280 -87.8030 171° South 404 465 20,600 2,520 Climbing FlightAware
06:13PM 41.1540 -87.7880 171° South 407 468 22,100 2,220 Climbing FlightAware
06:14PM 41.0760 -87.7720 171° South 412 474 23,600 1,980 Climbing FlightAware
06:14PM 40.9990 -87.7570 172° South 415 478 24,900 1,740 Climbing FlightAware
06:15PM 40.9150 -87.7470 175° South 422 486 26,100 1,680 Climbing FlightAware
06:16PM 40.8430 -87.7500 182° South 424 488 27,200 1,500 Climbing FlightAware
06:16PM 40.7450 -87.7660 187° South 430 495 28,300 1,200 Climbing FlightAware
06:17PM 40.6660 -87.7940 195° South 444 511 29,000 900 Climbing FlightAware
06:18PM 40.5790 -87.8300 197° South 456 525 29,600 900 Climbing FlightAware
06:19PM 40.4990 -87.8680 200° South 464 534 30,300 1,080 Climbing FlightAware
06:19PM 40.4190 -87.9070 200° South 468 539 31,100 1,440 Climbing FlightAware
06:20PM 40.2990 -87.9690 202° Southwest 459 528 32,700 1,560 Climbing FlightAware
06:21PM 40.2260 -88.0110 204° Southwest 453 521 33,700 1,440 Climbing FlightAware
06:22PM 40.1430 -88.0610 205° Southwest 446 513 34,700 1,320 Climbing FlightAware
06:22PM 40.0650 -88.1100 206° Southwest 445 512 35,600 900 Climbing FlightAware
06:23PM 39.9930 -88.1590 208° Southwest 447 514 36,000 240 Climbing FlightAware
06:24PM 39.9090 -88.2190 209° Southwest 448 516 36,000  Level FlightAware
06:24PM 39.8420 -88.2610 206° Southwest 445 512 36,000  Level FlightAware
06:25PM 39.7500 -88.2630 181° South 433 498 36,000  Level FlightAware
06:26PM 39.6490 -88.2200 162° South 429 494 36,000  Level FlightAware
06:27PM 39.5710 -88.1850 161° South 430 495 36,000  Level FlightAware
06:27PM 39.4940 -88.1500 161° South 429 494 36,000  Level FlightAware
06:28PM 39.4180 -88.1150 160° South 426 490 36,000  Level FlightAware
06:29PM 39.3300 -88.0750 161° South 425 489 36,000  Level FlightAware
06:29PM 39.2560 -88.0410 160° South 425 489 36,000 600 Level FlightAware
06:30PM 39.1760 -88.0050 161° South 418 481 36,900 660 Climbing FlightAware
06:31PM 39.0980 -87.9700 161° South 428 493 37,000 60 Climbing FlightAware
06:32PM 39.0170 -87.9370 162° South 444 511 37,000  Level FlightAware
06:32PM 38.9300 -87.9180 170° South 448 516 37,000  Level FlightAware
06:33PM 38.8420 -87.8980 170° South 449 517 37,000  Level FlightAware
06:34PM 38.7590 -87.8790 170° South 449 517 37,000  Level FlightAware
06:34PM 38.6760 -87.8600 170° South 449 517 37,000  Level FlightAware
06:35PM 38.6240 -87.8490 171° South 449 517 37,000  Level FlightAware
06:36PM 38.5090 -87.8230 170° South 447 514 37,000  Level FlightAware
06:36PM 38.4230 -87.8050 171° South 446 513 37,000  Level FlightAware
06:37PM 38.3350 -87.7860 170° South 444 511 37,000  Level FlightAware
06:38PM 38.2560 -87.7700 171° South 443 510 37,000  Level FlightAware
06:39PM 38.1660 -87.7520 171° South 442 509 37,000  Level FlightAware
06:39PM 38.0800 -87.7300 169° South 430 495 37,000  Level FlightAware
06:40PM 38.0150 -87.6930 156° South 426 490 37,000  Level FlightAware
06:41PM 37.9320 -87.6460 156° South 426 490 37,000  Level FlightAware
06:41PM 37.8590 -87.5980 153° Southeast 425 489 37,000  Level FlightAware
06:42PM 37.7860 -87.5490 152° Southeast 427 491 37,000  Level FlightAware
06:43PM 37.7140 -87.5010 152° Southeast 429 494 37,000  Level FlightAware
06:43PM 37.6430 -87.4550 153° Southeast 431 496 37,000  Level FlightAware
06:44PM 37.5640 -87.4030 152° Southeast 432 497 37,000  Level FlightAware
06:45PM 37.4850 -87.3570 155° Southeast 438 504 37,000  Level FlightAware
06:46PM 37.3670 -87.2980 158° South 440 506 37,000  Level FlightAware
06:47PM 37.2500 -87.2390 158° South 441 507 37,000  Level FlightAware
06:48PM 37.1800 -87.2040 158° South 442 509 37,000  Level FlightAware
06:49PM 37.0400 -87.1330 158° South 441 507 37,000  Level FlightAware
06:50PM 36.9530 -87.0890 158° South 441 507 37,000  Level FlightAware
06:50PM 36.8920 -87.0580 158° South 441 507 37,000  Level FlightAware
06:51PM 36.8030 -87.0140 158° South 446 513 37,000  Level FlightAware
06:52PM 36.7150 -86.9700 158° South 450 518 37,000  Level FlightAware
06:52PM 36.6290 -86.9280 159° South 450 518 37,000  Level FlightAware
06:53PM 36.5520 -86.8890 158° South 451 519 37,000  Level FlightAware
06:54PM 36.4830 -86.8550 158° South 452 520 37,000  Level FlightAware
06:54PM 36.3890 -86.8090 158° South 451 519 37,000  Level FlightAware
06:55PM 36.3110 -86.7700 158° South 452 520 37,000  Level FlightAware
06:56PM 36.2310 -86.7310 159° South 455 524 37,000  Level FlightAware
06:56PM 36.1440 -86.6850 157° South 453 521 37,000  Level FlightAware
06:57PM 36.0790 -86.6310 146° Southeast 452 520 37,000  Level FlightAware
06:58PM 36.0050 -86.5620 143° Southeast 455 524 37,000 360 Level FlightAware
06:59PM 35.9260 -86.4890 143° Southeast 456 525 37,600 900 Climbing FlightAware ADS-B
06:59PM 35.8630 -86.4300 143° Southeast 451 519 38,300 1,080 Climbing FlightAware
07:00PM 35.8028 -86.3749 143° Southeast 455 524 39,000 600 Climbing FlightAware ADS-B
07:00PM 35.7533 -86.3294 143° Southeast 446 513 39,000  Level FlightAware ADS-B
07:01PM 35.7002 -86.2810 143° Southeast 445 512 39,000  Level FlightAware ADS-B
07:01PM 35.6506 -86.2354 143° Southeast 445 512 39,000  Level FlightAware ADS-B
07:02PM 35.5956 -86.1847 143° Southeast 446 513 39,000  Level FlightAware ADS-B
07:03PM 35.5140 -86.1090 143° Southeast 446 513 39,000  Level FlightAware
07:04PM 35.4400 -86.0420 144° Southeast 448 516 39,000  Level FlightAware
07:04PM 35.4055 -86.0105 143° Southeast 446 513 39,000  Level FlightAware ADS-B
07:04PM 35.3544 -85.9640 143° Southeast 454 522 39,000  Level FlightAware ADS-B
07:05PM 35.3029 -85.9173 143° Southeast 460 529 39,000  Level FlightAware ADS-B
07:05PM 35.2502 -85.8695 143° Southeast 460 529 39,000  Level FlightAware ADS-B
07:06PM 35.1733 -85.7998 143° Southeast 460 529 39,000  Level FlightAware ADS-B
07:07PM 35.1215 -85.7531 144° Southeast 460 529 39,000  Level FlightAware ADS-B
07:07PM 35.0694 -85.7060 143° Southeast 460 529 39,000  Level FlightAware ADS-B
07:08PM 35.0164 -85.6582 144° Southeast 458 527 39,000  Level FlightAware ADS-B
07:08PM 34.9643 -85.6113 144° Southeast 458 527 39,000  Level FlightAware ADS-B
07:09PM 34.9115 -85.5641 144° Southeast 458 527 39,000  Level FlightAware ADS-B
07:09PM 34.8597 -85.5176 144° Southeast 458 527 39,000  Level FlightAware ADS-B
07:10PM 34.8028 -85.4664 144° Southeast 457 526 39,000  Level FlightAware ADS-B
07:11PM 34.7199 -85.3926 144° Southeast 454 522 39,000  Level FlightAware ADS-B
07:11PM 34.6680 -85.3464 144° Southeast 453 521 39,000  Level FlightAware ADS-B
07:12PM 34.6057 -85.2909 144° Southeast 451 519 39,000  Level FlightAware ADS-B
07:12PM 34.5346 -85.2281 144° Southeast 451 519 39,000  Level FlightAware ADS-B
07:13PM 34.4570 -85.1590 144° Southeast 449 517 39,000  Level FlightAware
07:14PM 34.3850 -85.0960 144° Southeast 451 519 39,000  Level FlightAware
07:14PM 34.3576 -85.0711 143° Southeast 452 520 39,000  Level FlightAware ADS-B
07:15PM 34.3052 -85.0249 144° Southeast 455 524 39,000  Level FlightAware ADS-B
07:15PM 34.2533 -84.9794 144° Southeast 457 526 39,000  Level FlightAware ADS-B
07:16PM 34.1951 -84.9282 144° Southeast 457 526 39,000  Level FlightAware ADS-B
07:16PM 34.1429 -84.8824 144° Southeast 458 527 39,000  Level FlightAware ADS-B
07:17PM 34.0886 -84.8349 144° Southeast 458 527 39,000  Level FlightAware ADS-B
07:17PM 34.0150 -84.7710 144° Southeast 457 526 39,000  Level FlightAware
07:18PM 33.9400 -84.7050 144° Southeast 455 524 39,000  Level FlightAware
07:19PM 33.8900 -84.6620 144° Southeast 455 524 39,000  Level FlightAware
07:20PM 33.8010 -84.5840 144° Southeast 455 524 39,000  Level FlightAware
07:20PM 33.7281 -84.5213 144° Southeast 454 522 39,000  Level FlightAware ADS-B
07:21PM 33.6762 -84.4765 144° Southeast 453 521 39,000  Level FlightAware ADS-B
07:21PM 33.6205 -84.4353 148° Southeast 451 519 39,000  Level FlightAware ADS-B
07:22PM 33.5539 -84.4037 158° South 450 518 39,000  Level FlightAware ADS-B
07:23PM 33.4120 -84.3440 161° South 449 517 39,000  Level FlightAware
07:24PM 33.3320 -84.3110 161° South 449 517 39,000  Level FlightAware
07:24PM 33.2540 -84.2790 161° South 449 517 39,000  Level FlightAware
07:25PM 33.1710 -84.2440 161° South 447 514 39,000  Level FlightAware
07:26PM 33.0900 -84.2110 161° South 446 513 39,000  Level FlightAware
07:27PM 33.0020 -84.1740 161° South 448 516 39,000  Level FlightAware
07:27PM 32.9230 -84.1420 161° South 447 514 39,000  Level FlightAware
07:28PM 32.8420 -84.1080 161° South 447 514 39,000  Level FlightAware
07:29PM 32.7600 -84.0740 161° South 446 513 39,000  Level FlightAware
07:29PM 32.6770 -84.0400 161° South 445 512 39,000  Level FlightAware
07:30PM 32.6000 -84.0090 161° South 444 511 39,000  Level FlightAware
07:31PM 32.5140 -83.9740 161° South 443 510 39,000  Level FlightAware
07:31PM 32.4340 -83.9410 161° South 442 509 39,000  Level FlightAware
07:32PM 32.3510 -83.9070 161° South 441 507 39,000  Level FlightAware
07:33PM 32.2780 -83.8770 161° South 440 506 39,000  Level FlightAware
07:34PM 32.1830 -83.8380 161° South 440 506 39,000  Level FlightAware
07:35PM 32.1040 -83.8040 160° South 440 506 39,000  Level FlightAware
07:35PM 32.0350 -83.7740 160° South 440 506 39,000  Level FlightAware
07:36PM 31.9770 -83.7490 160° South 440 506 39,000  Level FlightAware
07:37PM 31.8950 -83.7140 160° South 440 506 39,000  Level FlightAware
07:37PM 31.8370 -83.6890 160° South 440 506 39,000  Level FlightAware
07:38PM 31.7560 -83.6540 160° South 440 506 39,000  Level FlightAware
07:39PM 31.6970 -83.6290 160° South 440 506 39,000  Level FlightAware
07:40PM 31.5960 -83.5860 160° South 440 506 39,000  Level FlightAware
07:40PM 31.5390 -83.5620 160° South 440 506 39,000  Level FlightAware
07:41PM 31.4630 -83.5290 160° South 440 506 39,000  Level FlightAware
07:42PM 31.4060 -83.5050 160° South 440 506 39,000  Level FlightAware
07:42PM 31.3260 -83.4710 160° South 440 506 39,000  Level FlightAware
07:43PM 31.2680 -83.4460 160° South 440 506 39,000  Level FlightAware
07:45PM 31.0056 -83.1181 160° South 449 517 39,000  Level Jacksonville Center
07:46PM 30.8969 -83.0572 154° Southeast 442 509 39,000 -60 Level Jacksonville Center
07:47PM 30.7739 -83.0061 160° South 430 495 38,900  Descending Jacksonville Center
07:48PM 30.6569 -82.9700 165° South 430 495 39,000  Climbing Jacksonville Center
07:49PM 30.5358 -82.9264 163° South 442 509 38,900 -60 Descending Jacksonville Center
07:50PM 30.4169 -82.8878 164° South 442 509 38,900  Level Jacksonville Center
07:51PM 30.3000 -82.8469 163° South 442 509 39,000  Climbing Jacksonville Center
07:56PM 29.5940 -82.6120 163° South 436 502 39,000  Level FlightAware
07:57PM 29.5170 -82.5860 164° South 438 504 39,000  Level FlightAware
07:58PM 29.4600 -82.5670 164° South 439 505 39,000  Level FlightAware
07:58PM 29.3780 -82.5400 164° South 433 498 39,000  Level FlightAware
07:59PM 29.2980 -82.5640 195° South 433 498 39,000  Level FlightAware
08:00PM 29.2300 -82.5890 198° South 438 504 39,000  Level FlightAware
08:00PM 29.1520 -82.6170 197° South 439 505 39,000  Level FlightAware
08:01PM 29.0660 -82.6490 198° South 440 506 39,000  Level FlightAware
08:02PM 28.9880 -82.6780 198° South 441 507 39,000  Level FlightAware
08:02PM 28.9100 -82.7070 198° South 443 510 39,000  Level FlightAware
08:03PM 28.8210 -82.7390 197° South 443 510 39,000  Level FlightAware
08:04PM 28.7330 -82.7710 198° South 443 510 39,000  Level FlightAware
08:05PM 28.6360 -82.8080 199° South 444 511 39,000  Level FlightAware
08:05PM 28.5470 -82.8360 195° South 435 501 39,000  Level FlightAware
08:06PM 28.4690 -82.8340 179° South 435 501 39,000  Level FlightAware
08:07PM 28.3730 -82.8270 176° South 433 498 39,000  Level FlightAware
08:07PM 28.2920 -82.8220 177° South 432 497 39,000  Level FlightAware
08:08PM 28.1990 -82.8150 176° South 431 496 39,000  Level FlightAware
08:09PM 28.1290 -82.8100 176° South 438 504 39,000  Level FlightAware
08:10PM 28.0380 -82.8040 177° South 438 504 39,000  Level FlightAware
08:10PM 27.9590 -82.7990 177° South 437 503 39,000  Level FlightAware
08:11PM 27.8460 -82.7930 177° South 437 503 39,000  Level FlightAware
08:12PM 27.7750 -82.7900 178° South 437 503 39,000  Level FlightAware
08:12PM 27.6840 -82.7780 173° South 435 501 39,000  Level FlightAware
08:13PM 27.6010 -82.7370 156° South 441 507 39,000  Level FlightAware
08:14PM 27.5300 -82.6980 154° Southeast 432 497 39,000 -300 Level FlightAware
08:15PM 27.4640 -82.6370 141° Southeast 444 511 38,600 -780 Descending FlightAware
08:15PM 27.3900 -82.5560 136° Southeast 437 503 37,900 -660 Descending FlightAware
08:16PM 27.3240 -82.4830 135° Southeast 445 512 37,500 -780 Descending FlightAware
08:17PM 27.2430 -82.3960 136° Southeast 444 511 36,600 -960 Descending FlightAware
08:18PM 27.1500 -82.2970 137° Southeast 443 510 35,700 -1,080 Descending FlightAware
08:19PM 27.0700 -82.2120 137° Southeast 34,400 -1,200 Descending FlightAware
08:20PM 26.9310 -82.0630 136° Southeast 448 516 33,000 -960 Descending FlightAware
08:21PM 26.8740 -81.9950 133° Southeast 451 519 32,300 -1,020 Descending FlightAware
08:22PM 26.8170 -81.9270 133° Southeast 456 525 31,700 -1,020 Descending FlightAware
08:23PM 26.7380 -81.8260 131° Southeast 445 512 30,700 -1,140 Descending FlightAware
08:23PM 26.6890 -81.7610 130° Southeast 440 506 29,800 -1,980 Descending FlightAware
08:24PM 26.6280 -81.6810 130° Southeast 431 496 28,000 -2,340 Descending FlightAware
08:25PM 26.5850 -81.6240 130° Southeast 424 488 26,800 -900 Descending FlightAware
08:26PM 26.5320 -81.5540 130° Southeast 424 488 26,800 -2,220 Level FlightAware
08:26PM 26.4720 -81.4710 129° Southeast 404 465 23,500 -3,540 Descending FlightAware
08:27PM 26.4250 -81.4080 130° Southeast 396 456 22,100 -2,160 Descending FlightAware
08:28PM 26.3710 -81.3380 131° Southeast 382 440 20,500 -2,100 Descending FlightAware
08:28PM 26.3250 -81.2780 131° Southeast 384 442 19,200 -2,100 Descending FlightAware
08:29PM 26.2630 -81.2200 140° Southeast 380 437 17,600 -2,100 Descending FlightAware
08:30PM 26.1910 -81.1510 139° Southeast 369 425 15,700 -1,440 Descending FlightAware
08:31PM 26.1510 -81.1140 140° Southeast 373 429 15,500 -2,040 Descending FlightAware
08:31PM 26.0810 -81.0800 156° South 348 400 13,200 -2,640 Descending FlightAware
08:32PM 26.0180 -81.0420 152° Southeast 345 397 11,800 -1,920 Descending FlightAware
08:33PM 25.9610 -81.0080 152° Southeast 332 382 10,500 -1,320 Descending FlightAware
08:33PM 25.9060 -80.9650 145° Southeast 303 349 10,000 -540 Descending FlightAware
08:34PM 25.8980 -80.9440 113° Southeast 286 329 10,000 -900 Level FlightAware
08:34PM 25.8930 -80.9080 99° East 278 320 9,400 -1,680 Descending FlightAware
08:35PM 25.8890 -80.8670 96° East 276 318 8,500 -1,620 Descending FlightAware
08:35PM 25.8840 -80.8120 96° East 264 304 7,600 -1,620 Descending FlightAware
08:36PM 25.8800 -80.7790 98° East 263 303 6,800 -1,260 Descending FlightAware
08:36PM 25.8830 -80.7340 86° East 235 270 6,400 -1,020 Descending FlightAware
08:37PM 25.8850 -80.7040 86° East 225 259 5,800 -1,320 Descending FlightAware
08:37PM 25.8880 -80.6690 85° East 224 258 5,200 -1,320 Descending FlightAware
08:38PM 25.8910 -80.6350 84° East 222 255 4,500 -1,440 Descending FlightAware
08:38PM 25.8930 -80.6070 85° East 221 254 3,900 -1,380 Descending FlightAware
08:39PM 25.8960 -80.5730 84° East 219 252 3,300 -1,080 Descending FlightAware
08:39PM 25.8960 -80.5680 90° East 219 252 3,200 -840 Descending FlightAware
08:39PM 25.8990 -80.5340 84° East 210 242 2,800 -360 Descending FlightAware
08:40PM 25.8950 -80.4900 96° East 176 203 2,800  Level FlightAware
08:40PM 25.8880 -80.4770 121° Southeast 174 200 2,800  Level FlightAware
08:41PM 25.8780 -80.4570 119° Southeast 174 200 2,800 -240 Level FlightAware
08:41PM 25.8670 -80.4360 120° Southeast 174 200 2,600 -660 Descending FlightAware
08:42PM 25.8560 -80.4140 119° Southeast 171 197 2,200 -960 Descending FlightAware
08:42PM 25.8500 -80.4010 117° Southeast 169 194 1,900 -960 Descending FlightAware
08:42PM 25.8390 -80.3810 121° Southeast 163 188 1,500 -900 Descending FlightAware
08:43PM 25.8310 -80.3650 119° Southeast 148 170 1,200 -960 Descending FlightAware
08:43PM 25.8210 -80.3450 119° Southeast 141 162 700 -840 Descending FlightAware
08:44PM 25.8120 -80.3270 119° Southeast 140 161 400 -720 Descending FlightAware
08:44PM 25.8070 -80.3180 122° Southeast 141 162 200 -780 Descending FlightAware
08:44PM 25.7980 -80.3000 119° Southeast 144 166 -480 Descending FlightAware
08:45PM 25.7910 -80.2860 119° Southeast 37 43  Level FlightAware